Goodland, Minnesota
Current Conditions -  °F | °C
As of 6:15 AM on Monday 22 Dec 2014 (Local Time) from KGPZ Reporting Station
Overcast Overcast  
Wind Chill: 26°   Ceiling: 300
Heat Index: 34°   Visibility: 4mi
Dew Point: 32°   Wind: 9mph
Humidity: 93%   Direction: 130°SE
Pressure: 29.62"   Gusts: NA
Location:  47.16°N, 93.14°W
Report Text: KGPZ 221215Z AUTO 13008KT 4SM OVC003 01/00 A2962 RMK AO1
Loading
Personal Weather Stations






























Interactive Weather Map New forecast layout! Learn more

10-Day Weather Forecast

Advertisements
Track Severe Weather on mobile